sensor_id;sensor_type;location;lat;lon;timestamp;P1;durP1;ratioP1;P2;durP2;ratioP2
61254;SDS011;47128;47.530;8.584;2024-03-02T00:00:23;20.42;;;11.68;;
61254;SDS011;47128;47.530;8.584;2024-03-02T00:02:50;21.30;;;10.73;;
61254;SDS011;47128;47.530;8.584;2024-03-02T00:05:17;23.00;;;12.10;;
61254;SDS011;47128;47.530;8.584;2024-03-02T00:07:44;27.13;;;12.48;;
61254;SDS011;47128;47.530;8.584;2024-03-02T00:10:13;20.33;;;10.85;;
61254;SDS011;47128;47.530;8.584;2024-03-02T00:12:41;22.92;;;11.75;;
61254;SDS011;47128;47.530;8.584;2024-03-02T00:17:42;21.50;;;10.85;;
61254;SDS011;47128;47.530;8.584;2024-03-02T00:20:09;20.38;;;11.73;;
61254;SDS011;47128;47.530;8.584;2024-03-02T00:22:35;21.38;;;11.70;;
61254;SDS011;47128;47.530;8.584;2024-03-02T00:25:02;22.55;;;12.15;;
61254;SDS011;47128;47.530;8.584;2024-03-02T00:27:29;22.42;;;12.23;;
61254;SDS011;47128;47.530;8.584;2024-03-02T00:29:55;23.38;;;11.90;;
61254;SDS011;47128;47.530;8.584;2024-03-02T00:32:21;20.95;;;11.55;;
61254;SDS011;47128;47.530;8.584;2024-03-02T00:34:48;22.85;;;12.45;;
61254;SDS011;47128;47.530;8.584;2024-03-02T00:37:14;24.70;;;12.57;;
61254;SDS011;47128;47.530;8.584;2024-03-02T00:39:40;26.77;;;12.13;;
61254;SDS011;47128;47.530;8.584;2024-03-02T00:42:07;22.13;;;12.32;;
61254;SDS011;47128;47.530;8.584;2024-03-02T00:44:33;23.52;;;12.13;;
61254;SDS011;47128;47.530;8.584;2024-03-02T00:47:00;25.55;;;12.82;;
61254;SDS011;47128;47.530;8.584;2024-03-02T00:49:27;23.73;;;11.60;;
61254;SDS011;47128;47.530;8.584;2024-03-02T00:51:54;24.70;;;12.02;;
61254;SDS011;47128;47.530;8.584;2024-03-02T00:54:21;27.45;;;13.80;;
61254;SDS011;47128;47.530;8.584;2024-03-02T00:56:49;27.38;;;13.90;;
61254;SDS011;47128;47.530;8.584;2024-03-02T00:59:15;28.52;;;13.40;;
61254;SDS011;47128;47.530;8.584;2024-03-02T01:01:42;26.08;;;12.80;;
61254;SDS011;47128;47.530;8.584;2024-03-02T01:04:08;27.67;;;14.90;;
61254;SDS011;47128;47.530;8.584;2024-03-02T01:06:35;27.65;;;13.70;;
61254;SDS011;47128;47.530;8.584;2024-03-02T01:09:01;32.97;;;17.08;;
61254;SDS011;47128;47.530;8.584;2024-03-02T01:11:28;30.25;;;15.80;;
61254;SDS011;47128;47.530;8.584;2024-03-02T01:13:55;44.88;;;16.58;;
61254;SDS011;47128;47.530;8.584;2024-03-02T01:16:21;35.97;;;15.35;;
61254;SDS011;47128;47.530;8.584;2024-03-02T01:18:47;42.10;;;17.30;;
61254;SDS011;47128;47.530;8.584;2024-03-02T01:21:14;38.70;;;16.33;;
61254;SDS011;47128;47.530;8.584;2024-03-02T01:23:40;39.88;;;15.88;;
61254;SDS011;47128;47.530;8.584;2024-03-02T01:26:07;38.85;;;16.88;;
61254;SDS011;47128;47.530;8.584;2024-03-02T01:28:33;45.33;;;17.05;;
61254;SDS011;47128;47.530;8.584;2024-03-02T01:30:59;56.25;;;16.67;;
61254;SDS011;47128;47.530;8.584;2024-03-02T01:33:27;87.15;;;16.55;;
61254;SDS011;47128;47.530;8.584;2024-03-02T01:35:53;56.95;;;16.77;;
61254;SDS011;47128;47.530;8.584;2024-03-02T01:38:19;51.60;;;16.33;;
61254;SDS011;47128;47.530;8.584;2024-03-02T01:40:45;67.30;;;17.92;;
61254;SDS011;47128;47.530;8.584;2024-03-02T01:43:12;40.42;;;14.40;;
61254;SDS011;47128;47.530;8.584;2024-03-02T01:45:38;74.32;;;16.50;;
61254;SDS011;47128;47.530;8.584;2024-03-02T01:48:05;42.03;;;14.88;;
61254;SDS011;47128;47.530;8.584;2024-03-02T01:50:34;90.28;;;17.48;;
61254;SDS011;47128;47.530;8.584;2024-03-02T01:53:00;60.83;;;15.77;;
61254;SDS011;47128;47.530;8.584;2024-03-02T01:55:28;54.97;;;16.33;;
61254;SDS011;47128;47.530;8.584;2024-03-02T01:57:55;60.53;;;16.17;;
61254;SDS011;47128;47.530;8.584;2024-03-02T02:00:21;78.90;;;17.48;;
61254;SDS011;47128;47.530;8.584;2024-03-02T02:02:49;48.95;;;16.55;;
61254;SDS011;47128;47.530;8.584;2024-03-02T02:05:15;43.95;;;16.08;;
61254;SDS011;47128;47.530;8.584;2024-03-02T02:07:42;39.83;;;14.27;;
61254;SDS011;47128;47.530;8.584;2024-03-02T02:10:08;41.30;;;14.30;;
61254;SDS011;47128;47.530;8.584;2024-03-02T02:12:35;51.58;;;14.50;;
61254;SDS011;47128;47.530;8.584;2024-03-02T02:15:02;41.50;;;14.52;;
61254;SDS011;47128;47.530;8.584;2024-03-02T02:17:28;31.92;;;15.05;;
61254;SDS011;47128;47.530;8.584;2024-03-02T02:19:54;30.38;;;14.73;;
61254;SDS011;47128;47.530;8.584;2024-03-02T02:22:20;41.33;;;14.90;;
61254;SDS011;47128;47.530;8.584;2024-03-02T02:24:46;81.30;;;17.23;;
61254;SDS011;47128;47.530;8.584;2024-03-02T02:27:13;89.75;;;15.13;;
61254;SDS011;47128;47.530;8.584;2024-03-02T02:29:40;59.15;;;15.48;;
61254;SDS011;47128;47.530;8.584;2024-03-02T02:32:07;59.92;;;15.23;;
61254;SDS011;47128;47.530;8.584;2024-03-02T02:34:33;61.67;;;13.70;;
61254;SDS011;47128;47.530;8.584;2024-03-02T02:37:00;51.42;;;14.85;;
61254;SDS011;47128;47.530;8.584;2024-03-02T02:39:29;65.45;;;13.05;;
61254;SDS011;47128;47.530;8.584;2024-03-02T02:41:55;59.28;;;15.90;;
61254;SDS011;47128;47.530;8.584;2024-03-02T02:44:21;50.05;;;14.07;;
61254;SDS011;47128;47.530;8.584;2024-03-02T02:46:47;27.85;;;11.52;;
61254;SDS011;47128;47.530;8.584;2024-03-02T02:49:13;29.77;;;12.25;;
61254;SDS011;47128;47.530;8.584;2024-03-02T02:51:40;31.33;;;13.02;;
61254;SDS011;47128;47.530;8.584;2024-03-02T02:54:06;22.90;;;11.07;;
61254;SDS011;47128;47.530;8.584;2024-03-02T02:56:32;29.23;;;12.73;;
61254;SDS011;47128;47.530;8.584;2024-03-02T02:58:58;34.63;;;12.43;;
61254;SDS011;47128;47.530;8.584;2024-03-02T03:01:25;30.30;;;12.90;;
61254;SDS011;47128;47.530;8.584;2024-03-02T03:03:51;23.13;;;10.52;;
61254;SDS011;47128;47.530;8.584;2024-03-02T03:06:17;24.65;;;11.88;;
61254;SDS011;47128;47.530;8.584;2024-03-02T03:08:43;20.52;;;11.25;;
61254;SDS011;47128;47.530;8.584;2024-03-02T03:11:09;19.95;;;10.68;;
61254;SDS011;47128;47.530;8.584;2024-03-02T03:13:36;22.75;;;10.63;;
61254;SDS011;47128;47.530;8.584;2024-03-02T03:16:02;20.95;;;11.07;;
61254;SDS011;47128;47.530;8.584;2024-03-02T03:18:28;19.52;;;10.27;;
61254;SDS011;47128;47.530;8.584;2024-03-02T03:20:54;22.73;;;10.73;;
61254;SDS011;47128;47.530;8.584;2024-03-02T03:23:20;21.58;;;10.32;;
61254;SDS011;47128;47.530;8.584;2024-03-02T03:25:47;19.90;;;10.82;;
61254;SDS011;47128;47.530;8.584;2024-03-02T03:28:13;39.97;;;12.20;;
61254;SDS011;47128;47.530;8.584;2024-03-02T03:30:42;19.60;;;11.13;;
61254;SDS011;47128;47.530;8.584;2024-03-02T03:33:08;17.98;;;10.02;;
61254;SDS011;47128;47.530;8.584;2024-03-02T03:35:35;26.38;;;11.55;;
61254;SDS011;47128;47.530;8.584;2024-03-02T03:38:02;23.60;;;11.70;;
61254;SDS011;47128;47.530;8.584;2024-03-02T03:40:28;24.33;;;11.00;;
61254;SDS011;47128;47.530;8.584;2024-03-02T03:42:55;23.17;;;11.90;;
61254;SDS011;47128;47.530;8.584;2024-03-02T03:45:22;22.75;;;10.63;;
61254;SDS011;47128;47.530;8.584;2024-03-02T03:47:50;36.13;;;13.38;;
61254;SDS011;47128;47.530;8.584;2024-03-02T03:50:16;34.53;;;12.32;;
61254;SDS011;47128;47.530;8.584;2024-03-02T03:52:43;24.35;;;12.70;;
61254;SDS011;47128;47.530;8.584;2024-03-02T03:55:11;40.88;;;13.93;;
61254;SDS011;47128;47.530;8.584;2024-03-02T03:57:38;36.13;;;12.82;;
61254;SDS011;47128;47.530;8.584;2024-03-02T04:00:04;42.03;;;13.90;;
61254;SDS011;47128;47.530;8.584;2024-03-02T04:02:30;56.63;;;15.77;;
61254;SDS011;47128;47.530;8.584;2024-03-02T04:04:56;66.53;;;14.50;;
61254;SDS011;47128;47.530;8.584;2024-03-02T04:07:22;58.67;;;14.52;;
61254;SDS011;47128;47.530;8.584;2024-03-02T04:09:49;82.45;;;15.32;;
61254;SDS011;47128;47.530;8.584;2024-03-02T04:12:15;123.90;;;17.17;;
61254;SDS011;47128;47.530;8.584;2024-03-02T04:14:41;88.93;;;17.98;;
61254;SDS011;47128;47.530;8.584;2024-03-02T04:17:07;72.15;;;17.50;;
61254;SDS011;47128;47.530;8.584;2024-03-02T04:19:33;53.53;;;14.23;;
61254;SDS011;47128;47.530;8.584;2024-03-02T04:21:59;51.70;;;13.73;;
61254;SDS011;47128;47.530;8.584;2024-03-02T04:24:26;35.03;;;12.82;;
61254;SDS011;47128;47.530;8.584;2024-03-02T04:26:52;51.47;;;13.82;;
61254;SDS011;47128;47.530;8.584;2024-03-02T04:29:18;27.50;;;11.93;;
61254;SDS011;47128;47.530;8.584;2024-03-02T04:31:44;42.30;;;14.00;;
61254;SDS011;47128;47.530;8.584;2024-03-02T04:34:13;51.50;;;14.52;;
61254;SDS011;47128;47.530;8.584;2024-03-02T04:36:39;57.55;;;14.40;;
61254;SDS011;47128;47.530;8.584;2024-03-02T04:39:06;40.70;;;13.63;;
61254;SDS011;47128;47.530;8.584;2024-03-02T04:41:34;44.40;;;13.63;;
61254;SDS011;47128;47.530;8.584;2024-03-02T04:44:01;40.17;;;14.70;;
61254;SDS011;47128;47.530;8.584;2024-03-02T04:46:28;77.85;;;17.52;;
61254;SDS011;47128;47.530;8.584;2024-03-02T04:48:54;69.38;;;15.40;;
61254;SDS011;47128;47.530;8.584;2024-03-02T04:51:22;51.42;;;14.32;;
61254;SDS011;47128;47.530;8.584;2024-03-02T04:53:48;159.52;;;19.45;;
61254;SDS011;47128;47.530;8.584;2024-03-02T04:56:14;152.90;;;22.92;;
61254;SDS011;47128;47.530;8.584;2024-03-02T04:58:56;76.40;;;15.75;;
61254;SDS011;47128;47.530;8.584;2024-03-02T05:01:22;73.80;;;14.73;;
61254;SDS011;47128;47.530;8.584;2024-03-02T05:03:48;82.03;;;16.90;;
61254;SDS011;47128;47.530;8.584;2024-03-02T05:06:14;49.58;;;15.45;;
61254;SDS011;47128;47.530;8.584;2024-03-02T05:08:41;65.63;;;18.00;;
61254;SDS011;47128;47.530;8.584;2024-03-02T05:11:07;63.20;;;15.75;;
61254;SDS011;47128;47.530;8.584;2024-03-02T05:13:52;76.85;;;15.65;;
61254;SDS011;47128;47.530;8.584;2024-03-02T05:16:18;85.90;;;17.30;;
61254;SDS011;47128;47.530;8.584;2024-03-02T05:18:44;75.53;;;15.77;;
61254;SDS011;47128;47.530;8.584;2024-03-02T05:21:10;118.15;;;17.25;;
61254;SDS011;47128;47.530;8.584;2024-03-02T05:23:36;65.18;;;16.77;;
61254;SDS011;47128;47.530;8.584;2024-03-02T05:26:02;149.43;;;21.45;;
61254;SDS011;47128;47.530;8.584;2024-03-02T05:28:29;51.55;;;15.15;;
61254;SDS011;47128;47.530;8.584;2024-03-02T05:30:58;63.25;;;17.05;;
61254;SDS011;47128;47.530;8.584;2024-03-02T05:33:26;65.20;;;15.18;;
61254;SDS011;47128;47.530;8.584;2024-03-02T05:35:53;51.47;;;14.63;;
61254;SDS011;47128;47.530;8.584;2024-03-02T05:38:20;62.38;;;14.73;;
61254;SDS011;47128;47.530;8.584;2024-03-02T05:40:47;94.30;;;16.65;;
61254;SDS011;47128;47.530;8.584;2024-03-02T05:43:13;129.82;;;17.10;;
61254;SDS011;47128;47.530;8.584;2024-03-02T05:45:39;67.75;;;16.38;;
61254;SDS011;47128;47.530;8.584;2024-03-02T05:48:06;73.35;;;16.75;;
61254;SDS011;47128;47.530;8.584;2024-03-02T05:50:33;82.38;;;19.88;;
61254;SDS011;47128;47.530;8.584;2024-03-02T05:52:59;61.10;;;15.40;;
61254;SDS011;47128;47.530;8.584;2024-03-02T05:55:25;86.22;;;15.35;;
61254;SDS011;47128;47.530;8.584;2024-03-02T05:57:51;88.85;;;15.20;;
61254;SDS011;47128;47.530;8.584;2024-03-02T06:00:36;45.30;;;14.07;;
61254;SDS011;47128;47.530;8.584;2024-03-02T06:03:03;94.93;;;16.10;;
61254;SDS011;47128;47.530;8.584;2024-03-02T06:05:31;47.88;;;13.75;;
61254;SDS011;47128;47.530;8.584;2024-03-02T06:07:57;93.57;;;15.32;;
61254;SDS011;47128;47.530;8.584;2024-03-02T06:10:24;96.63;;;15.02;;
61254;SDS011;47128;47.530;8.584;2024-03-02T06:12:50;49.67;;;13.63;;
61254;SDS011;47128;47.530;8.584;2024-03-02T06:15:16;68.82;;;15.60;;
61254;SDS011;47128;47.530;8.584;2024-03-02T06:17:44;57.72;;;12.80;;
61254;SDS011;47128;47.530;8.584;2024-03-02T06:20:10;47.33;;;13.23;;
61254;SDS011;47128;47.530;8.584;2024-03-02T06:22:36;41.58;;;12.68;;
61254;SDS011;47128;47.530;8.584;2024-03-02T06:25:03;58.92;;;14.75;;
61254;SDS011;47128;47.530;8.584;2024-03-02T06:27:29;58.15;;;13.52;;
61254;SDS011;47128;47.530;8.584;2024-03-02T06:29:55;52.72;;;13.55;;
61254;SDS011;47128;47.530;8.584;2024-03-02T06:32:21;55.85;;;12.65;;
61254;SDS011;47128;47.530;8.584;2024-03-02T06:34:50;77.32;;;15.15;;
61254;SDS011;47128;47.530;8.584;2024-03-02T06:37:16;59.30;;;13.73;;
61254;SDS011;47128;47.530;8.584;2024-03-02T06:39:43;83.03;;;12.77;;
61254;SDS011;47128;47.530;8.584;2024-03-02T06:42:09;38.08;;;12.30;;
61254;SDS011;47128;47.530;8.584;2024-03-02T06:44:36;103.95;;;14.32;;
61254;SDS011;47128;47.530;8.584;2024-03-02T06:47:02;87.00;;;16.08;;
61254;SDS011;47128;47.530;8.584;2024-03-02T06:49:29;66.05;;;12.52;;
61254;SDS011;47128;47.530;8.584;2024-03-02T06:51:55;55.20;;;13.18;;
61254;SDS011;47128;47.530;8.584;2024-03-02T06:54:21;82.60;;;12.57;;
61254;SDS011;47128;47.530;8.584;2024-03-02T06:56:48;91.85;;;14.73;;
61254;SDS011;47128;47.530;8.584;2024-03-02T06:59:14;62.25;;;14.23;;
61254;SDS011;47128;47.530;8.584;2024-03-02T07:01:40;62.78;;;12.73;;
61254;SDS011;47128;47.530;8.584;2024-03-02T07:04:08;45.25;;;12.93;;
61254;SDS011;47128;47.530;8.584;2024-03-02T07:06:34;70.32;;;11.93;;
61254;SDS011;47128;47.530;8.584;2024-03-02T07:09:00;49.58;;;12.70;;
61254;SDS011;47128;47.530;8.584;2024-03-02T07:11:26;55.95;;;11.88;;
61254;SDS011;47128;47.530;8.584;2024-03-02T07:13:53;44.72;;;10.15;;
61254;SDS011;47128;47.530;8.584;2024-03-02T07:16:19;24.60;;;9.57;;
61254;SDS011;47128;47.530;8.584;2024-03-02T07:18:46;17.02;;;9.32;;
61254;SDS011;47128;47.530;8.584;2024-03-02T07:21:16;19.63;;;8.18;;
61254;SDS011;47128;47.530;8.584;2024-03-02T07:23:43;13.52;;;7.03;;
61254;SDS011;47128;47.530;8.584;2024-03-02T07:26:09;15.18;;;7.00;;
61254;SDS011;47128;47.530;8.584;2024-03-02T07:28:36;13.00;;;8.27;;
61254;SDS011;47128;47.530;8.584;2024-03-02T07:31:02;14.18;;;7.50;;
61254;SDS011;47128;47.530;8.584;2024-03-02T07:33:29;13.32;;;7.20;;
61254;SDS011;47128;47.530;8.584;2024-03-02T07:35:56;10.90;;;6.85;;
61254;SDS011;47128;47.530;8.584;2024-03-02T07:38:24;13.60;;;7.03;;
61254;SDS011;47128;47.530;8.584;2024-03-02T07:40:50;11.07;;;6.10;;
61254;SDS011;47128;47.530;8.584;2024-03-02T07:43:18;13.70;;;7.00;;
61254;SDS011;47128;47.530;8.584;2024-03-02T07:45:47;14.30;;;7.22;;
61254;SDS011;47128;47.530;8.584;2024-03-02T07:48:14;14.57;;;6.60;;
61254;SDS011;47128;47.530;8.584;2024-03-02T07:50:40;14.02;;;7.20;;
61254;SDS011;47128;47.530;8.584;2024-03-02T07:53:08;16.80;;;7.18;;
61254;SDS011;47128;47.530;8.584;2024-03-02T07:55:35;19.92;;;7.47;;
61254;SDS011;47128;47.530;8.584;2024-03-02T07:58:01;11.80;;;6.68;;
61254;SDS011;47128;47.530;8.584;2024-03-02T08:00:27;18.05;;;6.30;;
61254;SDS011;47128;47.530;8.584;2024-03-02T08:02:54;13.38;;;6.47;;
61254;SDS011;47128;47.530;8.584;2024-03-02T08:05:21;12.00;;;6.47;;
61254;SDS011;47128;47.530;8.584;2024-03-02T08:07:48;10.23;;;6.30;;
61254;SDS011;47128;47.530;8.584;2024-03-02T08:10:20;10.30;;;6.20;;
61254;SDS011;47128;47.530;8.584;2024-03-02T08:12:46;10.90;;;6.47;;
61254;SDS011;47128;47.530;8.584;2024-03-02T08:15:13;19.63;;;6.53;;
61254;SDS011;47128;47.530;8.584;2024-03-02T08:20:42;12.93;;;7.00;;
61254;SDS011;47128;47.530;8.584;2024-03-02T08:23:08;10.85;;;6.57;;
61254;SDS011;47128;47.530;8.584;2024-03-02T08:25:36;9.60;;;5.88;;
61254;SDS011;47128;47.530;8.584;2024-03-02T08:28:03;9.82;;;6.35;;
61254;SDS011;47128;47.530;8.584;2024-03-02T08:30:29;10.93;;;6.22;;
61254;SDS011;47128;47.530;8.584;2024-03-02T08:32:56;9.43;;;6.10;;
61254;SDS011;47128;47.530;8.584;2024-03-02T08:35:22;10.27;;;6.15;;
61254;SDS011;47128;47.530;8.584;2024-03-02T08:37:48;10.90;;;6.05;;
61254;SDS011;47128;47.530;8.584;2024-03-02T08:40:14;8.90;;;5.93;;
61254;SDS011;47128;47.530;8.584;2024-03-02T08:42:41;7.75;;;5.40;;
61254;SDS011;47128;47.530;8.584;2024-03-02T08:45:07;8.45;;;5.57;;
61254;SDS011;47128;47.530;8.584;2024-03-02T08:47:34;7.80;;;4.88;;
61254;SDS011;47128;47.530;8.584;2024-03-02T08:50:00;7.55;;;5.00;;
61254;SDS011;47128;47.530;8.584;2024-03-02T08:52:26;9.07;;;5.32;;
61254;SDS011;47128;47.530;8.584;2024-03-02T08:54:52;14.27;;;7.15;;
61254;SDS011;47128;47.530;8.584;2024-03-02T08:57:19;10.38;;;6.40;;
61254;SDS011;47128;47.530;8.584;2024-03-02T08:59:45;14.95;;;7.50;;
61254;SDS011;47128;47.530;8.584;2024-03-02T09:02:11;13.00;;;7.15;;
61254;SDS011;47128;47.530;8.584;2024-03-02T09:04:37;15.90;;;7.30;;
61254;SDS011;47128;47.530;8.584;2024-03-02T09:07:04;13.75;;;6.88;;
61254;SDS011;47128;47.530;8.584;2024-03-02T09:09:30;9.35;;;5.40;;
61254;SDS011;47128;47.530;8.584;2024-03-02T09:11:57;11.25;;;6.22;;
61254;SDS011;47128;47.530;8.584;2024-03-02T09:14:25;8.82;;;6.00;;
61254;SDS011;47128;47.530;8.584;2024-03-02T09:16:52;10.73;;;6.88;;
61254;SDS011;47128;47.530;8.584;2024-03-02T09:19:18;10.93;;;6.78;;
61254;SDS011;47128;47.530;8.584;2024-03-02T09:21:44;10.63;;;6.15;;
61254;SDS011;47128;47.530;8.584;2024-03-02T09:24:11;9.75;;;6.35;;
61254;SDS011;47128;47.530;8.584;2024-03-02T09:26:37;10.15;;;6.55;;
61254;SDS011;47128;47.530;8.584;2024-03-02T09:29:03;10.50;;;6.45;;
61254;SDS011;47128;47.530;8.584;2024-03-02T09:31:32;10.90;;;6.22;;
61254;SDS011;47128;47.530;8.584;2024-03-02T09:33:58;11.35;;;7.00;;
61254;SDS011;47128;47.530;8.584;2024-03-02T09:36:24;10.15;;;6.80;;
61254;SDS011;47128;47.530;8.584;2024-03-02T09:38:51;9.98;;;6.30;;
61254;SDS011;47128;47.530;8.584;2024-03-02T09:41:17;11.15;;;6.63;;
61254;SDS011;47128;47.530;8.584;2024-03-02T09:43:43;10.57;;;6.72;;
61254;SDS011;47128;47.530;8.584;2024-03-02T09:46:09;10.85;;;6.40;;
61254;SDS011;47128;47.530;8.584;2024-03-02T09:48:36;10.85;;;6.65;;
61254;SDS011;47128;47.530;8.584;2024-03-02T09:51:02;9.45;;;5.95;;
61254;SDS011;47128;47.530;8.584;2024-03-02T09:53:31;11.20;;;6.72;;
61254;SDS011;47128;47.530;8.584;2024-03-02T09:55:58;8.65;;;5.57;;
61254;SDS011;47128;47.530;8.584;2024-03-02T09:58:25;8.15;;;5.45;;
61254;SDS011;47128;47.530;8.584;2024-03-02T10:00:51;7.88;;;5.18;;
61254;SDS011;47128;47.530;8.584;2024-03-02T10:03:20;8.25;;;4.85;;
61254;SDS011;47128;47.530;8.584;2024-03-02T10:05:48;6.88;;;4.93;;
61254;SDS011;47128;47.530;8.584;2024-03-02T10:08:16;5.93;;;4.32;;
61254;SDS011;47128;47.530;8.584;2024-03-02T10:10:42;6.50;;;4.68;;
61254;SDS011;47128;47.530;8.584;2024-03-02T10:13:09;6.22;;;4.18;;
61254;SDS011;47128;47.530;8.584;2024-03-02T10:15:36;9.55;;;4.60;;
61254;SDS011;47128;47.530;8.584;2024-03-02T10:18:03;7.03;;;4.95;;
61254;SDS011;47128;47.530;8.584;2024-03-02T10:20:30;6.57;;;4.75;;
61254;SDS011;47128;47.530;8.584;2024-03-02T10:23:14;6.85;;;4.50;;
61254;SDS011;47128;47.530;8.584;2024-03-02T10:25:41;7.30;;;5.10;;
61254;SDS011;47128;47.530;8.584;2024-03-02T10:28:07;8.52;;;5.78;;
61254;SDS011;47128;47.530;8.584;2024-03-02T10:30:34;8.25;;;5.65;;
61254;SDS011;47128;47.530;8.584;2024-03-02T10:33:01;9.80;;;6.07;;
61254;SDS011;47128;47.530;8.584;2024-03-02T10:35:27;8.98;;;5.75;;
61254;SDS011;47128;47.530;8.584;2024-03-02T10:37:53;8.32;;;5.47;;
61254;SDS011;47128;47.530;8.584;2024-03-02T10:40:23;8.82;;;5.45;;
61254;SDS011;47128;47.530;8.584;2024-03-02T10:42:50;10.02;;;6.00;;
61254;SDS011;47128;47.530;8.584;2024-03-02T10:45:17;9.57;;;5.72;;
61254;SDS011;47128;47.530;8.584;2024-03-02T10:47:45;7.28;;;5.03;;
61254;SDS011;47128;47.530;8.584;2024-03-02T10:50:12;9.23;;;5.25;;
61254;SDS011;47128;47.530;8.584;2024-03-02T10:52:38;8.43;;;5.40;;
61254;SDS011;47128;47.530;8.584;2024-03-02T10:55:14;8.40;;;5.28;;
61254;SDS011;47128;47.530;8.584;2024-03-02T10:57:41;7.82;;;5.55;;
61254;SDS011;47128;47.530;8.584;2024-03-02T11:00:11;9.02;;;5.75;;
61254;SDS011;47128;47.530;8.584;2024-03-02T11:02:49;9.38;;;6.50;;
61254;SDS011;47128;47.530;8.584;2024-03-02T11:05:17;9.63;;;5.97;;
61254;SDS011;47128;47.530;8.584;2024-03-02T11:07:45;9.05;;;5.85;;
61254;SDS011;47128;47.530;8.584;2024-03-02T11:10:14;8.25;;;5.55;;
61254;SDS011;47128;47.530;8.584;2024-03-02T11:12:51;10.15;;;6.00;;
61254;SDS011;47128;47.530;8.584;2024-03-02T11:15:18;9.45;;;6.25;;
61254;SDS011;47128;47.530;8.584;2024-03-02T11:17:45;8.75;;;6.10;;
61254;SDS011;47128;47.530;8.584;2024-03-02T11:20:12;11.07;;;6.35;;
61254;SDS011;47128;47.530;8.584;2024-03-02T11:22:39;13.90;;;7.43;;
61254;SDS011;47128;47.530;8.584;2024-03-02T11:25:06;9.45;;;6.68;;
61254;SDS011;47128;47.530;8.584;2024-03-02T11:33:03;9.45;;;5.90;;
61254;SDS011;47128;47.530;8.584;2024-03-02T11:35:33;9.80;;;6.65;;
61254;SDS011;47128;47.530;8.584;2024-03-02T11:37:59;10.25;;;6.68;;
61254;SDS011;47128;47.530;8.584;2024-03-02T11:40:25;8.65;;;6.10;;
61254;SDS011;47128;47.530;8.584;2024-03-02T11:42:51;8.32;;;5.97;;
61254;SDS011;47128;47.530;8.584;2024-03-02T11:45:23;9.05;;;6.68;;
61254;SDS011;47128;47.530;8.584;2024-03-02T11:47:50;8.10;;;6.05;;
61254;SDS011;47128;47.530;8.584;2024-03-02T11:53:07;7.05;;;5.38;;
61254;SDS011;47128;47.530;8.584;2024-03-02T11:55:34;10.15;;;6.47;;
61254;SDS011;47128;47.530;8.584;2024-03-02T11:58:11;9.18;;;6.57;;
61254;SDS011;47128;47.530;8.584;2024-03-02T12:00:37;8.27;;;6.00;;
61254;SDS011;47128;47.530;8.584;2024-03-02T12:03:04;8.38;;;6.50;;
61254;SDS011;47128;47.530;8.584;2024-03-02T12:05:31;8.57;;;6.30;;
61254;SDS011;47128;47.530;8.584;2024-03-02T12:07:58;6.88;;;5.88;;
61254;SDS011;47128;47.530;8.584;2024-03-02T12:10:25;8.88;;;6.18;;
61254;SDS011;47128;47.530;8.584;2024-03-02T12:12:57;6.32;;;5.30;;
61254;SDS011;47128;47.530;8.584;2024-03-02T12:15:25;7.25;;;5.50;;
61254;SDS011;47128;47.530;8.584;2024-03-02T12:17:58;5.80;;;4.45;;
61254;SDS011;47128;47.530;8.584;2024-03-02T12:20:25;6.63;;;4.77;;
61254;SDS011;47128;47.530;8.584;2024-03-02T12:22:51;6.15;;;5.03;;
61254;SDS011;47128;47.530;8.584;2024-03-02T12:25:22;5.93;;;4.45;;
61254;SDS011;47128;47.530;8.584;2024-03-02T12:27:49;6.40;;;4.43;;
61254;SDS011;47128;47.530;8.584;2024-03-02T12:30:19;5.25;;;4.07;;
61254;SDS011;47128;47.530;8.584;2024-03-02T12:32:45;6.30;;;4.03;;
61254;SDS011;47128;47.530;8.584;2024-03-02T12:35:11;3.10;;;2.80;;
61254;SDS011;47128;47.530;8.584;2024-03-02T12:37:42;4.60;;;4.00;;
61254;SDS011;47128;47.530;8.584;2024-03-02T12:40:10;5.82;;;4.43;;
61254;SDS011;47128;47.530;8.584;2024-03-02T12:42:36;5.10;;;3.83;;
61254;SDS011;47128;47.530;8.584;2024-03-02T12:45:05;4.38;;;3.53;;
61254;SDS011;47128;47.530;8.584;2024-03-02T12:47:33;4.65;;;3.60;;
61254;SDS011;47128;47.530;8.584;2024-03-02T12:49:59;3.50;;;2.95;;
61254;SDS011;47128;47.530;8.584;2024-03-02T12:52:26;4.00;;;3.10;;
61254;SDS011;47128;47.530;8.584;2024-03-02T12:54:52;2.65;;;2.33;;
61254;SDS011;47128;47.530;8.584;2024-03-02T12:57:24;4.65;;;2.97;;
61254;SDS011;47128;47.530;8.584;2024-03-02T12:59:52;3.55;;;2.85;;
61254;SDS011;47128;47.530;8.584;2024-03-02T13:02:18;3.75;;;3.03;;
61254;SDS011;47128;47.530;8.584;2024-03-02T13:04:44;3.42;;;2.80;;
61254;SDS011;47128;47.530;8.584;2024-03-02T13:07:19;4.15;;;3.50;;
61254;SDS011;47128;47.530;8.584;2024-03-02T13:09:46;4.55;;;3.25;;
61254;SDS011;47128;47.530;8.584;2024-03-02T13:12:14;5.63;;;3.72;;
61254;SDS011;47128;47.530;8.584;2024-03-02T13:14:44;3.45;;;2.83;;
61254;SDS011;47128;47.530;8.584;2024-03-02T13:17:10;5.90;;;3.25;;
61254;SDS011;47128;47.530;8.584;2024-03-02T13:19:42;6.20;;;3.25;;
61254;SDS011;47128;47.530;8.584;2024-03-02T13:22:09;5.40;;;2.90;;
61254;SDS011;47128;47.530;8.584;2024-03-02T13:24:35;4.35;;;2.67;;
61254;SDS011;47128;47.530;8.584;2024-03-02T13:27:03;4.10;;;2.50;;
61254;SDS011;47128;47.530;8.584;2024-03-02T13:29:30;4.32;;;2.50;;
61254;SDS011;47128;47.530;8.584;2024-03-02T13:31:56;2.72;;;2.13;;
61254;SDS011;47128;47.530;8.584;2024-03-02T13:34:23;4.28;;;2.75;;
61254;SDS011;47128;47.530;8.584;2024-03-02T13:36:48;3.92;;;2.15;;
61254;SDS011;47128;47.530;8.584;2024-03-02T13:39:15;3.33;;;2.30;;
61254;SDS011;47128;47.530;8.584;2024-03-02T13:41:42;3.75;;;2.42;;
61254;SDS011;47128;47.530;8.584;2024-03-02T13:44:17;3.17;;;2.38;;
61254;SDS011;47128;47.530;8.584;2024-03-02T13:46:43;2.85;;;2.10;;
61254;SDS011;47128;47.530;8.584;2024-03-02T13:49:11;2.67;;;2.20;;
61254;SDS011;47128;47.530;8.584;2024-03-02T13:51:37;3.53;;;2.03;;
61254;SDS011;47128;47.530;8.584;2024-03-02T13:54:03;3.75;;;2.10;;
61254;SDS011;47128;47.530;8.584;2024-03-02T13:56:29;3.60;;;2.25;;
61254;SDS011;47128;47.530;8.584;2024-03-02T13:58:57;3.05;;;2.00;;
61254;SDS011;47128;47.530;8.584;2024-03-02T14:01:23;4.53;;;2.30;;
61254;SDS011;47128;47.530;8.584;2024-03-02T14:03:49;3.90;;;2.42;;
61254;SDS011;47128;47.530;8.584;2024-03-02T14:06:16;1.98;;;1.55;;
61254;SDS011;47128;47.530;8.584;2024-03-02T14:08:42;2.47;;;1.75;;
61254;SDS011;47128;47.530;8.584;2024-03-02T14:11:10;2.83;;;1.90;;
61254;SDS011;47128;47.530;8.584;2024-03-02T14:13:43;3.10;;;1.70;;
61254;SDS011;47128;47.530;8.584;2024-03-02T14:16:13;2.05;;;1.40;;
61254;SDS011;47128;47.530;8.584;2024-03-02T14:18:41;3.58;;;2.10;;
61254;SDS011;47128;47.530;8.584;2024-03-02T14:21:08;1.92;;;1.20;;
61254;SDS011;47128;47.530;8.584;2024-03-02T14:23:36;1.65;;;1.27;;
61254;SDS011;47128;47.530;8.584;2024-03-02T14:26:02;2.90;;;1.50;;
61254;SDS011;47128;47.530;8.584;2024-03-02T14:28:28;3.55;;;2.13;;
61254;SDS011;47128;47.530;8.584;2024-03-02T14:30:55;1.38;;;1.10;;
61254;SDS011;47128;47.530;8.584;2024-03-02T14:33:21;2.08;;;1.35;;
61254;SDS011;47128;47.530;8.584;2024-03-02T14:35:48;16.63;;;8.63;;
61254;SDS011;47128;47.530;8.584;2024-03-02T14:38:14;10.20;;;5.55;;
61254;SDS011;47128;47.530;8.584;2024-03-02T14:40:40;2.95;;;1.80;;
61254;SDS011;47128;47.530;8.584;2024-03-02T14:43:06;3.05;;;1.80;;
61254;SDS011;47128;47.530;8.584;2024-03-02T14:45:32;3.30;;;1.85;;